createdAt,value
2023-05-06T00:01:34.420Z,215.43
2023-05-06T00:04:00.983Z,201.50
2023-05-06T00:06:28.744Z,193.50
2023-05-06T00:08:55.267Z,198.10
2023-05-06T00:11:21.733Z,190.83
2023-05-06T00:13:48.210Z,174.23
2023-05-06T00:16:15.061Z,176.20
2023-05-06T00:18:42.099Z,166.43
2023-05-06T00:21:08.597Z,167.50
2023-05-06T00:23:35.076Z,161.97
2023-05-06T00:26:01.568Z,157.93
2023-05-06T00:28:28.073Z,148.10
2023-05-06T00:30:54.524Z,135.33
2023-05-06T00:33:21.143Z,129.83
2023-05-06T00:35:48.250Z,128.57
2023-05-06T00:38:17.645Z,118.37
2023-05-06T00:40:44.178Z,127.43
2023-05-06T00:43:10.674Z,127.13
2023-05-06T00:45:37.541Z,118.63
2023-05-06T00:48:05.335Z,117.10
2023-05-06T00:50:33.317Z,112.80
2023-05-06T00:53:00.674Z,109.00
2023-05-06T00:55:27.436Z,101.47
2023-05-06T00:57:54.547Z,109.73
2023-05-06T01:00:21.547Z,99.40
2023-05-06T01:02:48.889Z,95.23
2023-05-06T01:05:19.373Z,88.83
2023-05-06T01:07:48.904Z,83.83
2023-05-06T01:10:27.463Z,87.20
2023-05-06T01:13:19.684Z,76.67
2023-05-06T01:15:47.981Z,69.57
2023-05-06T01:18:18.126Z,62.63
2023-05-06T01:20:49.854Z,56.57
2023-05-06T01:23:17.293Z,64.57
2023-05-06T01:25:44.116Z,61.40
2023-05-06T01:28:12.062Z,61.93
2023-05-06T01:31:05.778Z,56.07
2023-05-06T01:33:37.368Z,55.47
2023-05-06T01:36:13.921Z,50.03
2023-05-06T01:38:54.465Z,50.53
2023-05-06T01:41:21.346Z,47.67
2023-05-06T01:43:48.329Z,43.67
2023-05-06T01:46:22.646Z,39.70
2023-05-06T01:48:55.459Z,37.20
2023-05-06T01:51:23.559Z,39.50
2023-05-06T01:53:51.001Z,36.17
2023-05-06T01:56:17.529Z,32.77
2023-05-06T01:58:44.028Z,31.07
2023-05-06T02:01:10.543Z,28.40
2023-05-06T02:03:37.591Z,28.40
2023-05-06T02:06:04.861Z,27.60
2023-05-06T02:08:31.439Z,24.57
2023-05-06T02:10:57.890Z,28.50
2023-05-06T02:13:24.418Z,22.67
2023-05-06T02:15:54.755Z,24.23
2023-05-06T02:18:21.660Z,22.77
2023-05-06T02:20:48.128Z,20.73
2023-05-06T02:23:14.658Z,19.07
2023-05-06T02:25:41.139Z,19.20
2023-05-06T02:28:07.631Z,17.57
2023-05-06T02:30:34.658Z,16.40
2023-05-06T02:33:01.250Z,15.47
2023-05-06T02:35:27.818Z,16.73
2023-05-06T02:37:54.310Z,14.90
2023-05-06T02:40:20.805Z,14.33
2023-05-06T02:42:47.382Z,14.40
2023-05-06T02:45:13.942Z,12.80
2023-05-06T02:47:40.665Z,12.37
2023-05-06T02:50:07.570Z,15.37
2023-05-06T02:52:34.988Z,12.47
2023-05-06T02:55:01.939Z,10.30
2023-05-06T02:57:28.648Z,11.07
2023-05-06T02:59:55.213Z,11.27
2023-05-06T03:02:21.803Z,10.17
2023-05-06T03:04:48.342Z,9.70
2023-05-06T03:07:14.779Z,10.00
2023-05-06T03:09:41.303Z,9.97
2023-05-06T03:12:07.734Z,10.33
2023-05-06T03:14:34.209Z,9.53
2023-05-06T03:17:00.720Z,9.40
2023-05-06T03:19:27.232Z,9.50
2023-05-06T03:21:53.760Z,10.47
2023-05-06T03:24:20.339Z,10.20
2023-05-06T03:26:46.767Z,9.73
2023-05-06T03:29:13.230Z,9.80
2023-05-06T03:31:39.811Z,10.50
2023-05-06T03:34:06.335Z,10.83
2023-05-06T03:36:33.112Z,9.73
2023-05-06T03:38:59.617Z,10.03
2023-05-06T03:41:26.138Z,10.47
2023-05-06T03:43:54.143Z,24.70
2023-05-06T03:46:20.623Z,10.90
2023-05-06T03:48:47.152Z,10.70
2023-05-06T03:51:13.770Z,10.63
2023-05-06T03:53:40.294Z,12.47
2023-05-06T03:56:07.177Z,10.73
2023-05-06T03:58:33.656Z,14.00
2023-05-06T04:01:01.060Z,12.70
2023-05-06T04:03:27.807Z,15.87
2023-05-06T04:05:54.357Z,11.97
2023-05-06T04:08:20.914Z,14.23
2023-05-06T04:10:47.610Z,10.90
2023-05-06T04:13:14.178Z,12.07
2023-05-06T04:15:41.535Z,11.60
2023-05-06T04:18:08.332Z,11.33
2023-05-06T04:20:34.983Z,12.33
2023-05-06T04:23:01.867Z,12.17
2023-05-06T04:25:28.801Z,11.93
2023-05-06T04:27:55.270Z,12.17
2023-05-06T04:30:22.563Z,11.90
2023-05-06T04:32:49.113Z,12.30
2023-05-06T04:35:16.316Z,12.80
2023-05-06T04:37:43.525Z,13.10
2023-05-06T04:40:12.234Z,12.43
2023-05-06T04:42:38.892Z,11.57
2023-05-06T04:45:05.795Z,13.70
2023-05-06T04:47:32.432Z,13.40
2023-05-06T04:49:58.988Z,13.33
2023-05-06T04:52:26.209Z,12.60
2023-05-06T04:54:52.680Z,11.20
2023-05-06T04:57:19.111Z,12.67
2023-05-06T04:59:46.353Z,12.30
2023-05-06T05:02:12.974Z,13.10
2023-05-06T05:04:39.525Z,12.87
2023-05-06T05:07:07.405Z,13.93
2023-05-06T05:09:35.027Z,13.13
2023-05-06T05:12:02.604Z,13.13
2023-05-06T05:14:29.072Z,11.60
2023-05-06T05:16:55.834Z,12.83
2023-05-06T05:19:22.374Z,14.23
2023-05-06T05:21:49.262Z,13.60
2023-05-06T05:24:16.043Z,23.03
2023-05-06T05:26:42.502Z,12.63
2023-05-06T05:29:08.981Z,13.33
2023-05-06T05:31:35.481Z,13.53
2023-05-06T05:34:02.009Z,14.93
2023-05-06T05:36:28.524Z,14.70
2023-05-06T05:38:54.998Z,15.00
2023-05-06T05:41:21.668Z,14.30
2023-05-06T05:43:48.181Z,15.80
2023-05-06T05:46:14.703Z,15.30
2023-05-06T05:48:41.334Z,17.33
2023-05-06T05:51:07.800Z,15.40
2023-05-06T05:53:34.261Z,15.17
2023-05-06T05:56:00.742Z,14.70
2023-05-06T05:58:27.242Z,17.33
2023-05-06T06:00:53.907Z,18.33
2023-05-06T06:03:20.475Z,16.40
2023-05-06T06:05:49.304Z,16.33
2023-05-06T06:08:17.417Z,15.53
2023-05-06T06:10:43.872Z,16.80
2023-05-06T06:13:10.385Z,17.00
2023-05-06T06:15:36.927Z,16.60
2023-05-06T06:18:03.523Z,17.03
2023-05-06T06:20:30.058Z,18.00
2023-05-06T06:22:56.514Z,16.77
2023-05-06T06:25:22.978Z,18.83
2023-05-06T06:27:49.425Z,21.03
2023-05-06T06:30:16.038Z,24.50
2023-05-06T06:32:50.098Z,21.80
2023-05-06T06:35:17.114Z,21.77
2023-05-06T06:37:43.615Z,23.07
2023-05-06T06:40:11.290Z,22.80
2023-05-06T06:42:38.024Z,24.07
2023-05-06T06:45:05.293Z,21.93
2023-05-06T06:47:31.735Z,22.83
2023-05-06T06:49:58.223Z,23.37
2023-05-06T06:52:24.775Z,23.30
2023-05-06T06:54:51.261Z,24.33
2023-05-06T06:57:17.842Z,24.23
2023-05-06T06:59:44.702Z,23.50
2023-05-06T07:02:11.138Z,23.57
2023-05-06T07:04:37.702Z,41.23
2023-05-06T07:07:04.187Z,28.60
2023-05-06T07:09:30.626Z,26.27
2023-05-06T07:11:58.585Z,86.00
2023-05-06T07:14:25.882Z,45.03
2023-05-06T07:16:52.355Z,41.40
2023-05-06T07:19:18.952Z,26.50
2023-05-06T07:21:45.422Z,26.37
2023-05-06T07:24:11.908Z,30.87
2023-05-06T07:26:38.480Z,27.33
2023-05-06T07:29:04.943Z,27.50
2023-05-06T07:31:34.624Z,28.50
2023-05-06T07:34:01.226Z,28.60
2023-05-06T07:36:28.732Z,29.33
2023-05-06T07:38:55.290Z,29.23
2023-05-06T07:41:21.735Z,26.60
2023-05-06T07:43:48.173Z,31.27
2023-05-06T07:46:14.658Z,28.00
2023-05-06T07:48:41.190Z,27.47
2023-05-06T07:51:07.677Z,31.00
2023-05-06T07:53:34.161Z,29.60
2023-05-06T07:56:02.561Z,29.97
2023-05-06T07:58:30.225Z,25.87
2023-05-06T08:00:56.737Z,27.37
2023-05-06T08:03:23.604Z,28.73
2023-05-06T08:05:53.581Z,29.37
2023-05-06T08:08:20.109Z,30.27
2023-05-06T08:10:46.754Z,31.07
2023-05-06T08:13:13.306Z,29.50
2023-05-06T08:15:39.946Z,42.47
2023-05-06T08:18:21.103Z,44.23
2023-05-06T08:20:48.573Z,33.37
2023-05-06T08:23:15.129Z,32.40
2023-05-06T08:25:41.640Z,31.70
2023-05-06T08:28:08.099Z,32.67
2023-05-06T08:30:34.584Z,31.20
2023-05-06T08:33:01.921Z,31.57
2023-05-06T08:35:28.403Z,32.07
2023-05-06T08:37:54.848Z,31.67
2023-05-06T08:40:22.513Z,34.00
2023-05-06T08:42:49.940Z,32.47
2023-05-06T08:45:19.802Z,34.33
2023-05-06T08:47:47.435Z,33.57
2023-05-06T08:50:14.115Z,35.00
2023-05-06T08:52:40.637Z,33.90
2023-05-06T08:55:08.100Z,33.70
2023-05-06T08:57:35.123Z,32.70
2023-05-06T09:00:01.944Z,34.70
2023-05-06T09:02:28.618Z,36.13
2023-05-06T09:04:56.556Z,37.20
2023-05-06T09:07:23.988Z,34.93
2023-05-06T09:09:51.637Z,34.00
2023-05-06T09:12:18.568Z,35.07
2023-05-06T09:14:46.701Z,33.77
2023-05-06T09:17:27.890Z,34.50
2023-05-06T09:19:56.966Z,36.83
2023-05-06T09:22:24.710Z,34.30
2023-05-06T09:24:57.655Z,33.33
2023-05-06T09:27:28.415Z,35.60
2023-05-06T09:30:08.782Z,34.93
2023-05-06T09:32:38.359Z,36.03
2023-05-06T09:35:07.323Z,32.13
2023-05-06T09:37:33.938Z,33.30
2023-05-06T09:40:01.133Z,33.90
2023-05-06T09:42:29.636Z,32.43
2023-05-06T09:45:00.548Z,32.93
2023-05-06T09:47:29.957Z,33.10
2023-05-06T09:49:58.393Z,31.87
2023-05-06T09:52:27.314Z,32.10
2023-05-06T09:54:54.828Z,31.90
2023-05-06T09:57:22.350Z,33.60
2023-05-06T09:59:49.186Z,28.90
2023-05-06T10:02:16.403Z,31.47
2023-05-06T10:04:43.603Z,31.33
2023-05-06T10:07:13.754Z,32.47
2023-05-06T10:09:41.146Z,32.23
2023-05-06T10:12:08.862Z,32.13
2023-05-06T10:14:36.789Z,33.43
2023-05-06T10:17:08.553Z,31.23
2023-05-06T10:19:35.616Z,33.87
2023-05-06T10:22:34.990Z,32.67
2023-05-06T10:25:13.084Z,33.60
2023-05-06T10:27:43.475Z,33.27
2023-05-06T10:30:11.379Z,32.73
2023-05-06T10:32:43.095Z,32.17
2023-05-06T10:35:16.630Z,30.90
2023-05-06T10:37:43.760Z,33.40
2023-05-06T10:40:11.419Z,32.50
2023-05-06T10:42:37.880Z,31.63
2023-05-06T10:45:05.936Z,29.47
2023-05-06T10:47:57.699Z,32.00
2023-05-06T10:50:25.440Z,31.47
2023-05-06T10:52:56.589Z,32.63
2023-05-06T10:55:37.737Z,34.03
2023-05-06T10:58:12.162Z,36.87
2023-05-06T11:00:38.656Z,43.63
2023-05-06T11:03:07.587Z,29.70
2023-05-06T11:05:51.882Z,31.73
2023-05-06T11:08:23.719Z,34.40
2023-05-06T11:10:50.219Z,35.67
2023-05-06T11:13:27.666Z,35.83
2023-05-06T11:15:55.664Z,33.77
2023-05-06T11:18:25.153Z,32.87
2023-05-06T11:20:52.510Z,35.07
2023-05-06T11:23:19.078Z,31.90
2023-05-06T11:25:47.264Z,33.43
2023-05-06T11:28:14.726Z,34.50
2023-05-06T11:30:43.728Z,32.40
2023-05-06T11:33:19.968Z,37.17
2023-05-06T11:35:46.466Z,30.83
2023-05-06T11:38:13.022Z,33.50
2023-05-06T11:40:41.935Z,32.23
2023-05-06T11:43:13.076Z,35.77
2023-05-06T11:45:47.299Z,41.47
2023-05-06T11:48:18.039Z,35.97
2023-05-06T11:50:48.671Z,33.77
2023-05-06T11:53:18.952Z,32.27
2023-05-06T11:55:46.417Z,31.87
2023-05-06T11:58:17.007Z,34.77
2023-05-06T12:01:01.458Z,36.33
2023-05-06T12:03:30.158Z,34.17
2023-05-06T12:05:57.161Z,39.53
2023-05-06T12:08:27.868Z,33.10
2023-05-06T12:10:57.030Z,34.17
2023-05-06T12:13:23.672Z,30.10
2023-05-06T12:15:50.483Z,33.37
2023-05-06T12:18:17.112Z,34.63
2023-05-06T12:20:44.373Z,35.53
2023-05-06T12:23:15.395Z,34.50
2023-05-06T12:25:43.130Z,35.83
2023-05-06T12:28:20.859Z,36.00
2023-05-06T12:30:47.433Z,31.00
2023-05-06T12:33:13.929Z,33.93
2023-05-06T12:35:41.101Z,32.50
2023-05-06T12:38:25.993Z,35.10
2023-05-06T12:40:54.550Z,37.33
2023-05-06T12:43:29.391Z,38.63
2023-05-06T12:46:06.745Z,37.83
2023-05-06T12:48:33.515Z,37.43
2023-05-06T12:51:00.057Z,35.57
2023-05-06T12:53:34.686Z,39.17
2023-05-06T12:56:01.168Z,34.77
2023-05-06T12:58:37.654Z,37.17
2023-05-06T13:01:04.586Z,40.10
2023-05-06T13:03:31.156Z,37.43
2023-05-06T13:05:57.756Z,37.33
2023-05-06T13:08:24.205Z,40.07
2023-05-06T13:10:50.995Z,38.53
2023-05-06T13:13:17.463Z,41.73
2023-05-06T13:15:43.947Z,37.07
2023-05-06T13:18:10.449Z,40.70
2023-05-06T13:20:36.945Z,38.30
2023-05-06T13:23:03.884Z,46.73
2023-05-06T13:25:30.358Z,43.80
2023-05-06T13:27:56.801Z,43.33
2023-05-06T13:30:23.299Z,43.00
2023-05-06T13:32:49.803Z,37.10
2023-05-06T13:35:16.339Z,38.67
2023-05-06T13:37:42.882Z,35.97
2023-05-06T13:40:10.241Z,41.40
2023-05-06T13:42:36.829Z,43.43
2023-05-06T13:45:03.446Z,37.90
2023-05-06T13:47:29.900Z,34.97
2023-05-06T13:49:56.364Z,38.23
2023-05-06T13:52:22.806Z,49.20
2023-05-06T13:54:49.606Z,38.10
2023-05-06T13:57:16.045Z,41.33
2023-05-06T13:59:42.545Z,40.00
2023-05-06T14:02:09.996Z,41.43
2023-05-06T14:04:36.728Z,49.17
2023-05-06T14:07:03.257Z,42.33
2023-05-06T14:09:29.699Z,54.80
2023-05-06T14:11:56.138Z,45.87
2023-05-06T14:14:22.599Z,43.53
2023-05-06T14:16:49.088Z,42.17
2023-05-06T14:19:15.546Z,43.20
2023-05-06T14:21:41.988Z,44.83
2023-05-06T14:24:10.176Z,46.27
2023-05-06T14:26:36.731Z,46.70
2023-05-06T14:29:03.831Z,46.53
2023-05-06T14:31:30.426Z,43.53
2023-05-06T14:33:57.378Z,39.80
2023-05-06T14:36:24.924Z,46.03
2023-05-06T14:38:51.377Z,42.80
2023-05-06T14:41:17.842Z,41.83
2023-05-06T14:43:44.297Z,47.13
2023-05-06T14:46:11.598Z,44.93
2023-05-06T14:48:38.091Z,43.63
2023-05-06T14:51:05.046Z,49.20
2023-05-06T14:53:31.480Z,41.50
2023-05-06T14:55:57.918Z,39.87
2023-05-06T14:58:24.486Z,42.47
2023-05-06T15:00:50.966Z,40.00
2023-05-06T15:03:17.452Z,40.37
2023-05-06T15:05:43.947Z,43.13
2023-05-06T15:08:10.461Z,40.93
2023-05-06T15:10:37.044Z,42.10
2023-05-06T15:13:03.743Z,42.23
2023-05-06T15:15:30.390Z,43.40
2023-05-06T15:17:56.901Z,40.63
2023-05-06T15:20:23.471Z,47.90
2023-05-06T15:22:50.089Z,52.23
2023-05-06T15:25:30.400Z,55.30
2023-05-06T15:28:00.404Z,51.20
2023-05-06T15:30:27.483Z,61.00
2023-05-06T15:32:54.010Z,48.73
2023-05-06T15:35:22.324Z,55.53
2023-05-06T15:37:55.905Z,53.40
2023-05-06T15:40:27.884Z,54.83
2023-05-06T15:42:55.650Z,58.77
2023-05-06T15:45:22.466Z,57.13
2023-05-06T15:47:49.029Z,56.90
2023-05-06T15:50:29.002Z,59.53
2023-05-06T15:52:59.664Z,68.83
2023-05-06T15:55:26.651Z,69.23
2023-05-06T15:57:54.600Z,69.00
2023-05-06T16:00:21.987Z,75.73
2023-05-06T16:02:48.684Z,70.63
2023-05-06T16:05:15.786Z,86.00
2023-05-06T16:07:42.507Z,81.80
2023-05-06T16:10:09.241Z,75.53
2023-05-06T16:12:36.411Z,76.90
2023-05-06T16:15:03.324Z,83.50
2023-05-06T16:17:30.487Z,80.47
2023-05-06T16:19:57.300Z,79.33
2023-05-06T16:22:23.774Z,91.93
2023-05-06T16:24:50.247Z,105.70
2023-05-06T16:27:16.723Z,97.47
2023-05-06T16:29:43.185Z,101.10
2023-05-06T16:32:09.676Z,100.93
2023-05-06T16:34:38.881Z,114.63
2023-05-06T16:37:07.641Z,109.10
2023-05-06T16:39:34.150Z,110.17
2023-05-06T16:42:01.168Z,107.83
2023-05-06T16:44:29.053Z,115.33
2023-05-06T16:46:56.087Z,116.57
2023-05-06T16:49:22.678Z,127.53
2023-05-06T16:51:49.158Z,123.07
2023-05-06T16:54:15.696Z,135.73
2023-05-06T16:56:51.539Z,121.20
2023-05-06T16:59:21.462Z,147.53
2023-05-06T17:01:48.737Z,120.00
2023-05-06T17:04:18.745Z,133.93
2023-05-06T17:06:45.228Z,130.10
2023-05-06T17:09:12.220Z,127.17
2023-05-06T17:11:38.704Z,133.10
2023-05-06T17:14:05.257Z,136.47
2023-05-06T17:16:31.805Z,138.07
2023-05-06T17:18:58.358Z,139.33
2023-05-06T17:21:24.990Z,142.57
2023-05-06T17:23:54.423Z,154.67
2023-05-06T17:26:21.447Z,150.37
2023-05-06T17:28:48.323Z,184.70
2023-05-06T17:31:15.745Z,158.50
2023-05-06T17:33:42.267Z,160.30
2023-05-06T17:36:09.094Z,154.53
2023-05-06T17:38:35.602Z,162.63
2023-05-06T17:41:02.146Z,156.63
2023-05-06T17:43:28.901Z,164.33
2023-05-06T17:45:55.992Z,159.97
2023-05-06T17:48:22.723Z,177.07
2023-05-06T17:50:49.179Z,175.20
2023-05-06T17:53:15.748Z,171.17
2023-05-06T17:55:42.200Z,188.50
2023-05-06T17:58:08.686Z,179.67
2023-05-06T18:00:37.883Z,183.70
2023-05-06T18:03:04.591Z,183.57
2023-05-06T18:05:31.170Z,191.17
2023-05-06T18:07:58.312Z,185.97
2023-05-06T18:10:24.779Z,185.03
2023-05-06T18:12:51.314Z,179.13
2023-05-06T18:15:17.848Z,181.27
2023-05-06T18:17:44.352Z,184.30
2023-05-06T18:20:11.552Z,192.50
2023-05-06T18:22:39.036Z,208.80
2023-05-06T18:25:06.630Z,190.93
2023-05-06T18:27:33.046Z,202.73
2023-05-06T18:29:59.524Z,198.47
2023-05-06T18:32:26.203Z,191.03
2023-05-06T18:34:52.781Z,191.60
2023-05-06T18:37:19.216Z,213.87
2023-05-06T18:39:46.034Z,211.27
2023-05-06T18:42:12.458Z,206.00
2023-05-06T18:44:38.922Z,218.43
2023-05-06T18:47:05.692Z,216.60
2023-05-06T18:49:32.238Z,221.07
2023-05-06T18:51:58.827Z,221.73
2023-05-06T18:54:25.333Z,228.80
2023-05-06T18:56:51.928Z,237.40
2023-05-06T18:59:21.622Z,223.90
2023-05-06T19:01:48.125Z,235.27
2023-05-06T19:04:14.824Z,232.10
2023-05-06T19:06:41.593Z,237.47
2023-05-06T19:09:08.275Z,237.43
2023-05-06T19:11:35.025Z,251.60
2023-05-06T19:14:03.661Z,244.57
2023-05-06T19:16:30.323Z,246.70
2023-05-06T19:18:56.784Z,245.07
2023-05-06T19:21:23.259Z,250.83
2023-05-06T19:23:50.127Z,257.13
2023-05-06T19:26:16.639Z,253.63
2023-05-06T19:28:43.275Z,256.20
2023-05-06T19:31:10.778Z,262.60
2023-05-06T19:33:42.575Z,284.23
2023-05-06T19:36:09.421Z,261.53
2023-05-06T19:38:35.972Z,271.60
2023-05-06T19:41:03.023Z,277.23
2023-05-06T19:43:31.463Z,276.83
2023-05-06T19:45:58.010Z,270.77
2023-05-06T19:48:25.201Z,271.50
2023-05-06T19:50:54.596Z,274.77
2023-05-06T19:53:25.746Z,268.50
2023-05-06T19:55:53.779Z,270.93
2023-05-06T19:58:20.369Z,282.00
2023-05-06T20:00:46.870Z,277.50
2023-05-06T20:03:13.859Z,284.50
2023-05-06T20:05:41.272Z,300.30
2023-05-06T20:08:10.983Z,295.03
2023-05-06T20:10:38.118Z,286.53
2023-05-06T20:13:05.006Z,289.53
2023-05-06T20:15:33.798Z,286.90
2023-05-06T20:18:00.454Z,297.57
2023-05-06T20:20:34.097Z,306.20
2023-05-06T20:23:04.176Z,305.60
2023-05-06T20:25:31.188Z,313.30
2023-05-06T20:27:58.752Z,299.30
2023-05-06T20:30:26.513Z,301.37
2023-05-06T20:32:53.098Z,312.47
2023-05-06T20:35:19.709Z,304.43
2023-05-06T20:37:48.157Z,299.70
2023-05-06T20:40:15.398Z,311.20
2023-05-06T20:42:42.384Z,320.27
2023-05-06T20:45:13.276Z,314.80
2023-05-06T20:47:40.285Z,320.97
2023-05-06T20:50:07.850Z,318.80
2023-05-06T20:52:36.802Z,331.20
2023-05-06T20:55:05.384Z,332.03
2023-05-06T20:57:32.834Z,332.10
2023-05-06T21:00:00.110Z,328.73
2023-05-06T21:02:34.441Z,339.90
2023-05-06T21:05:07.853Z,331.50
2023-05-06T21:07:34.622Z,343.50
2023-05-06T21:10:03.203Z,342.13
2023-05-06T21:12:29.702Z,342.23
2023-05-06T21:14:56.194Z,339.47
2023-05-06T21:17:22.767Z,345.53
2023-05-06T21:19:52.495Z,351.17
2023-05-06T21:22:23.282Z,351.80
2023-05-06T21:24:50.678Z,348.67
2023-05-06T21:27:17.159Z,360.43
2023-05-06T21:29:43.623Z,358.97
2023-05-06T21:32:10.202Z,355.23
2023-05-06T21:34:36.644Z,360.63
2023-05-06T21:37:03.185Z,360.77
2023-05-06T21:39:29.691Z,365.50
2023-05-06T21:41:56.518Z,365.30
2023-05-06T21:44:22.983Z,358.87
2023-05-06T21:46:49.549Z,360.27
2023-05-06T21:49:16.143Z,361.77
2023-05-06T21:51:42.623Z,374.33
2023-05-06T21:54:09.206Z,365.97
2023-05-06T21:56:35.776Z,379.63
2023-05-06T21:59:02.195Z,368.30
2023-05-06T22:01:29.256Z,358.27
2023-05-06T22:03:56.020Z,364.30
2023-05-06T22:06:22.678Z,361.17
2023-05-06T22:08:49.163Z,371.03
2023-05-06T22:11:15.916Z,360.23
2023-05-06T22:13:42.446Z,355.57
2023-05-06T22:20:33.092Z,350.97
2023-05-06T22:22:59.535Z,331.93
2023-05-06T22:25:26.241Z,330.60
2023-05-06T22:27:52.707Z,335.93
2023-05-06T22:30:19.188Z,340.17
2023-05-06T22:32:45.685Z,334.57
2023-05-06T22:35:12.461Z,320.43
2023-05-06T22:37:39.189Z,324.43
2023-05-06T22:40:07.175Z,315.97
2023-05-06T22:42:33.630Z,306.47
2023-05-06T22:45:00.143Z,300.50
2023-05-06T22:47:26.811Z,279.37
2023-05-06T22:49:53.325Z,284.33
2023-05-06T22:52:20.317Z,276.00
2023-05-06T22:54:47.034Z,267.77
2023-05-06T22:57:14.406Z,257.23
2023-05-06T22:59:40.924Z,251.67
2023-05-06T23:02:07.414Z,228.93
2023-05-06T23:04:33.898Z,208.10
2023-05-06T23:07:00.478Z,218.70
2023-05-06T23:09:26.962Z,215.73
2023-05-06T23:11:53.422Z,199.30
2023-05-06T23:14:19.929Z,205.77
2023-05-06T23:16:46.500Z,171.33
2023-05-06T23:19:12.926Z,197.67
2023-05-06T23:21:41.503Z,164.60
2023-05-06T23:24:08.818Z,168.80
2023-05-06T23:26:35.325Z,160.57
2023-05-06T23:29:01.810Z,135.50
2023-05-06T23:31:28.360Z,140.70
2023-05-06T23:33:54.866Z,124.73
2023-05-06T23:36:21.607Z,122.00
2023-05-06T23:38:48.051Z,123.93
2023-05-06T23:41:14.538Z,106.70
2023-05-06T23:43:40.995Z,114.63
2023-05-06T23:46:07.500Z,110.37
2023-05-06T23:48:34.452Z,98.63
2023-05-06T23:51:00.980Z,96.93
2023-05-06T23:53:27.464Z,88.03
2023-05-06T23:55:54.033Z,75.47
2023-05-06T23:58:20.652Z,69.07
